Ana Sayfa
METAR-TAF:

METAR-TAF

Havaalanları :

Vientiane, Laos

Enlem: 17-57N, Boylam: 102-34E, yükseklik: 171 m

Güncel hava durumu gözlemi

Rapor saat 11:30 UTC de 40 dakika önce yapıldı.
Rüzgar doğudan 4 kt
Sıcaklık 25°C
Nem 74%
Basınç 1013 hPa
Görüş mesafesi: 5000 m
4000 ft yükseklikte parçalı çok bulutlu
Pus

METAR: VLVT 231130Z 09004KT 5000 BR BKN040 25/20 Q1013 NOSIG

Saat: 19:10 (12:10 UTC)

Tahmin

Rapor saat 11:00 UTC de 1 saat ve 10 dakika önce yapıldı.
Ayın 23'si saat 12 UTC'den ayın 24'si saat 12 UTC'ye kadar geçerli Tahmin
Rüzgar doğudan 8 kt
Görüş mesafesi: 4000 m
1600 ft yükseklikte parçalı bulutlu
4000 ft yükseklikte parçalı çok bulutlu
Pus
Geçici
ayın 23'si saat 18 UTC'den ayın 23'si saat 23 UTC'ye kadar
Görüş mesafesi: 3000 m
1600 ft yükseklikte az bulutlu
4000 ft yükseklikte parçalı çok bulutlu
Pus

TAF: VLVT 231100Z 2312/2412 09008KT 4000 BR SCT016 BKN040 TEMPO 2318/2323 3000 BR FEW016 BKN040

4.000'den fazla havaalanı için hava durumu gözlemleri ve tahminleri (METAR ve TAF raporları).

Kullanılabilir istasyonlar harita üzerinde sarı ve kırmızı noktalarla gösterilir.

İstasyonun adını görmek için fareyi noktanın üzerinde gezdirin.

Sonrasında hava gözlem ve tahminlerini görmek için tıklayın.

Haritayı değiştirmek için: yaklaştırmak için siyah artı işaretli yeşil düğmeye ve uzaklaştırmak için de eksi işaretli düğmeye hızla tıklayın; bitişik haritalar için yeşil okları kullanın.


METAR-TAF: